Time,TemperatureF,DewpointF,PressureIn,WindDirection,WindDirectionDegrees,WindSpeedMPH,WindSpeedGustMPH,Humidity,HourlyPrecipIn,Conditions,Clouds,dailyrainin,SoftwareType,DateUTC
2013-04-10 00:04:00,72.4,66.9,29.69,SE,146,5.0,6.0,83,0.00,,---,0.00,VWS V14.01,2013-04-10 05:04:00,
2013-04-10 00:09:00,72.4,66.9,29.69,SE,128,6.0,9.0,83,0.00,,---,0.00,VWS V14.01,2013-04-10 05:09:00,
2013-04-10 00:14:00,72.5,67.1,29.69,ESE,123,5.0,7.0,83,0.00,,---,0.00,VWS V14.01,2013-04-10 05:14:00,
2013-04-10 00:19:00,72.6,67.2,29.69,SE,129,4.0,6.0,83,0.00,,---,0.00,VWS V14.01,2013-04-10 05:19:00,
2013-04-10 00:24:00,72.7,67.2,29.69,SE,126,4.0,8.0,83,0.00,,---,0.00,VWS V14.01,2013-04-10 05:24:00,
2013-04-10 00:29:00,72.7,67.2,29.69,SE,130,4.0,7.0,83,0.00,,---,0.00,VWS V14.01,2013-04-10 05:29:00,
2013-04-10 00:34:00,72.7,67.2,29.69,SE,128,3.0,4.0,83,0.00,,---,0.00,VWS V14.01,2013-04-10 05:34:00,
2013-04-10 00:39:00,72.5,67.1,29.69,ESE,113,2.0,4.0,83,0.00,,---,0.00,VWS V14.01,2013-04-10 05:39:00,
2013-04-10 00:44:00,72.4,67.3,29.69,ESE,113,2.0,3.0,84,0.00,,---,0.00,VWS V14.01,2013-04-10 05:44:00,
2013-04-10 00:49:00,72.2,67.1,29.69,ESE,112,1.0,4.0,84,0.00,,---,0.00,VWS V14.01,2013-04-10 05:49:00,
2013-04-10 00:54:00,72.2,67.1,29.68,ESE,113,1.0,3.0,84,0.00,,---,0.00,VWS V14.01,2013-04-10 05:54:00,
2013-04-10 00:59:00,72.1,67.0,29.68,SE,130,3.0,4.0,84,0.00,,---,0.00,VWS V14.01,2013-04-10 05:59:00,
2013-04-10 01:04:00,72.0,66.9,29.68,ESE,108,4.0,5.0,84,0.00,,---,0.00,VWS V14.01,2013-04-10 06:04:00,
2013-04-10 01:09:00,71.8,66.7,29.68,ESE,105,1.0,4.0,84,0.00,,---,0.00,VWS V14.01,2013-04-10 06:09:00,
2013-04-10 01:14:00,71.7,66.9,29.68,ESE,113,4.0,7.0,85,0.00,,---,0.00,VWS V14.01,2013-04-10 06:14:00,
2013-04-10 01:19:00,71.4,66.7,29.68,SE,130,5.0,8.0,85,0.00,,---,0.00,VWS V14.01,2013-04-10 06:19:00,
2013-04-10 01:24:00,71.3,66.6,29.67,ESE,117,4.0,7.0,85,0.00,,---,0.00,VWS V14.01,2013-04-10 06:24:00,
2013-04-10 01:29:00,71.0,66.6,29.67,East,97,7.0,7.0,86,0.00,,---,0.00,VWS V14.01,2013-04-10 06:29:00,
2013-04-10 01:34:00,70.9,66.5,29.68,SE,125,5.0,6.0,86,0.00,,---,0.00,VWS V14.01,2013-04-10 06:34:00,
2013-04-10 01:39:00,70.8,66.7,29.68,East,97,2.0,5.0,87,0.00,,---,0.00,VWS V14.01,2013-04-10 06:39:00,
2013-04-10 01:44:00,70.8,66.7,29.67,ESE,119,4.0,5.0,87,0.00,,---,0.00,VWS V14.01,2013-04-10 06:44:00,
2013-04-10 01:49:00,71.0,66.9,29.67,SE,136,5.0,8.0,87,0.00,,---,0.00,VWS V14.01,2013-04-10 06:49:00,
2013-04-10 01:55:00,71.3,67.2,29.68,SE,132,5.0,8.0,87,0.00,,---,0.00,VWS V14.01,2013-04-10 06:55:00,
2013-04-10 02:00:00,71.6,67.2,29.68,SSE,158,1.0,8.0,86,0.00,,---,0.00,VWS V14.01,2013-04-10 07:00:00,
2013-04-10 02:05:00,71.7,67.3,29.68,SSE,152,5.0,7.0,86,0.00,,---,0.00,VWS V14.01,2013-04-10 07:05:00,
2013-04-10 02:10:00,71.9,67.5,29.68,SSE,150,2.0,5.0,86,0.00,,---,0.00,VWS V14.01,2013-04-10 07:10:00,
2013-04-10 02:15:00,72.0,67.6,29.68,SSE,162,4.0,8.0,86,0.00,,---,0.00,VWS V14.01,2013-04-10 07:15:00,
2013-04-10 02:20:00,72.1,67.7,29.67,SE,145,7.0,12.0,86,0.00,,---,0.00,VWS V14.01,2013-04-10 07:20:00,
2013-04-10 02:25:00,72.1,67.7,29.67,SE,139,8.0,9.0,86,0.00,,---,0.00,VWS V14.01,2013-04-10 07:25:00,
2013-04-10 02:30:00,72.2,67.8,29.67,SE,142,6.0,10.0,86,0.00,,---,0.00,VWS V14.01,2013-04-10 07:30:00,
2013-04-10 02:35:00,72.2,67.8,29.67,SSE,161,7.0,10.0,86,0.00,,---,0.00,VWS V14.01,2013-04-10 07:35:00,
2013-04-10 02:40:00,72.3,67.9,29.67,SSE,157,3.0,8.0,86,0.00,,---,0.00,VWS V14.01,2013-04-10 07:40:00,
2013-04-10 02:45:00,72.3,67.9,29.67,SSE,158,1.0,7.0,86,0.00,,---,0.00,VWS V14.01,2013-04-10 07:45:00,
2013-04-10 02:50:00,72.3,67.9,29.67,South,184,6.0,6.0,86,0.00,,---,0.00,VWS V14.01,2013-04-10 07:50:00,
2013-04-10 02:55:00,72.3,67.9,29.67,South,185,4.0,7.0,86,0.00,,---,0.00,VWS V14.01,2013-04-10 07:55:00,
2013-04-10 03:00:00,72.3,67.9,29.67,South,175,4.0,5.0,86,0.00,,---,0.00,VWS V14.01,2013-04-10 08:00:00,
2013-04-10 03:05:00,72.3,67.9,29.67,South,180,1.0,4.0,86,0.00,,---,0.00,VWS V14.01,2013-04-10 08:05:00,
2013-04-10 03:10:00,72.2,67.8,29.67,SSE,161,0.0,5.0,86,0.00,,---,0.00,VWS V14.01,2013-04-10 08:10:00,
2013-04-10 03:15:00,72.2,67.8,29.67,South,181,4.0,6.0,86,0.00,,---,0.00,VWS V14.01,2013-04-10 08:15:00,
2013-04-10 03:20:00,72.2,67.8,29.67,South,171,3.0,4.0,86,0.00,,---,0.00,VWS V14.01,2013-04-10 08:20:00,
2013-04-10 03:25:00,72.2,67.8,29.67,SSW,198,0.0,3.0,86,0.00,,---,0.00,VWS V14.01,2013-04-10 08:25:00,
2013-04-10 03:30:00,72.1,68.0,29.66,SSE,164,0.0,5.0,87,0.00,,---,0.00,VWS V14.01,2013-04-10 08:30:00,
2013-04-10 03:35:00,72.1,68.0,29.66,South,176,5.0,8.0,87,0.00,,---,0.00,VWS V14.01,2013-04-10 08:35:00,
2013-04-10 03:40:00,71.6,65.1,29.68,West,261,12.0,17.0,80,0.00,,---,0.00,VWS V14.01,2013-04-10 08:40:00,
2013-04-10 03:45:00,67.9,57.4,29.68,NNW,343,2.0,11.0,69,0.00,,---,0.00,VWS V14.01,2013-04-10 08:45:00,
2013-04-10 03:50:00,64.0,55.2,29.69,WNW,288,11.0,15.0,73,0.00,,---,0.00,VWS V14.01,2013-04-10 08:50:00,
2013-04-10 03:56:00,60.4,52.5,29.68,WNW,293,6.0,19.0,75,0.00,,---,0.00,VWS V14.01,2013-04-10 08:56:00,
2013-04-10 04:01:00,57.5,51.4,29.69,WNW,300,5.0,15.0,80,0.00,,---,0.00,VWS V14.01,2013-04-10 09:01:00,
2013-04-10 04:06:00,56.0,50.6,29.69,West,267,4.0,11.0,82,0.00,,---,0.00,VWS V14.01,2013-04-10 09:06:00,
2013-04-10 04:11:00,54.8,49.7,29.69,NW,321,4.0,13.0,83,0.00,,---,0.00,VWS V14.01,2013-04-10 09:11:00,
2013-04-10 04:16:00,54.0,49.6,29.70,NW,305,8.0,10.0,85,0.00,,---,0.00,VWS V14.01,2013-04-10 09:16:00,
2013-04-10 04:21:00,53.3,48.9,29.70,West,280,8.0,11.0,85,0.00,,---,0.00,VWS V14.01,2013-04-10 09:21:00,
2013-04-10 04:27:00,52.6,48.2,29.72,West,259,4.0,14.0,85,0.00,,---,0.00,VWS V14.01,2013-04-10 09:27:00,
2013-04-10 04:31:00,51.8,47.4,29.72,West,267,8.0,12.0,85,0.00,,---,0.00,VWS V14.01,2013-04-10 09:31:00,
2013-04-10 04:37:00,51.3,47.3,29.72,West,259,4.0,15.0,86,0.00,,---,0.00,VWS V14.01,2013-04-10 09:37:00,
2013-04-10 04:42:00,51.0,47.3,29.73,West,278,8.0,11.0,87,0.00,,---,0.00,VWS V14.01,2013-04-10 09:42:00,
2013-04-10 04:47:00,50.7,47.0,29.73,WNW,296,4.0,10.0,87,0.00,,---,0.00,VWS V14.01,2013-04-10 09:47:00,
2013-04-10 04:52:00,50.3,46.6,29.73,WSW,258,8.0,14.0,87,0.00,,---,0.00,VWS V14.01,2013-04-10 09:52:00,
2013-04-10 04:57:00,49.8,46.1,29.73,NW,326,9.0,14.0,87,0.00,,---,0.00,VWS V14.01,2013-04-10 09:57:00,
2013-04-10 05:02:00,49.4,45.7,29.73,West,279,10.0,14.0,87,0.00,,---,0.00,VWS V14.01,2013-04-10 10:02:00,
2013-04-10 05:07:00,49.0,45.3,29.74,WNW,291,13.0,18.0,87,0.00,,---,0.00,VWS V14.01,2013-04-10 10:07:00,
2013-04-10 05:12:00,48.8,45.1,29.74,NW,306,7.0,9.0,87,0.00,,---,0.00,VWS V14.01,2013-04-10 10:12:00,
2013-04-10 05:17:00,48.6,44.9,29.76,NW,323,7.0,12.0,87,0.00,,---,0.00,VWS V14.01,2013-04-10 10:17:00,
2013-04-10 05:22:00,48.2,43.9,29.76,West,271,9.0,19.0,85,0.00,,---,0.00,VWS V14.01,2013-04-10 10:22:00,
2013-04-10 05:27:00,47.9,43.9,29.76,NW,311,13.0,13.0,86,0.00,,---,0.00,VWS V14.01,2013-04-10 10:27:00,
2013-04-10 05:32:00,47.7,43.7,29.77,North,350,5.0,13.0,86,0.00,,---,0.00,VWS V14.01,2013-04-10 10:32:00,
2013-04-10 05:37:00,47.5,43.5,29.77,West,280,14.0,18.0,86,0.00,,---,0.00,VWS V14.01,2013-04-10 10:37:00,
2013-04-10 05:43:00,47.3,43.3,29.77,West,273,16.0,16.0,86,0.00,,---,0.00,VWS V14.01,2013-04-10 10:43:00,
2013-04-10 05:48:00,47.3,43.3,29.78,WNW,296,7.0,14.0,86,0.00,,---,0.00,VWS V14.01,2013-04-10 10:48:00,
2013-04-10 05:53:00,47.2,43.2,29.79,NW,315,9.0,15.0,86,0.00,,---,0.00,VWS V14.01,2013-04-10 10:53:00,
2013-04-10 05:58:00,47.1,43.1,29.80,North,360,10.0,17.0,86,0.00,,---,0.00,VWS V14.01,2013-04-10 10:58:00,
2013-04-10 06:03:00,47.0,43.0,29.81,NW,304,4.0,19.0,86,0.00,,---,0.00,VWS V14.01,2013-04-10 11:03:00,
2013-04-10 06:08:00,46.9,42.9,29.80,WNW,298,10.0,15.0,86,0.00,,---,0.00,VWS V14.01,2013-04-10 11:08:00,
2013-04-10 06:13:00,46.9,43.2,29.81,NW,309,9.0,12.0,87,0.00,,---,0.00,VWS V14.01,2013-04-10 11:13:00,
2013-04-10 06:18:00,46.7,43.0,29.81,WNW,293,10.0,16.0,87,0.00,,---,0.00,VWS V14.01,2013-04-10 11:18:00,
2013-04-10 06:23:00,46.3,42.7,29.81,West,267,6.0,15.0,87,0.00,,---,0.00,VWS V14.01,2013-04-10 11:23:00,
2013-04-10 06:28:00,45.9,42.3,29.82,NW,314,5.0,15.0,87,0.00,,---,0.00,VWS V14.01,2013-04-10 11:28:00,
2013-04-10 06:33:00,45.6,42.0,29.81,NW,309,13.0,20.0,87,0.01,,---,0.01,VWS V14.01,2013-04-10 11:33:00,
2013-04-10 06:38:00,45.3,42.0,29.81,WNW,299,4.0,19.0,88,0.01,,---,0.01,VWS V14.01,2013-04-10 11:38:00,
2013-04-10 06:43:00,45.1,42.1,29.81,WNW,293,4.0,13.0,89,0.01,,---,0.01,VWS V14.01,2013-04-10 11:43:00,
2013-04-10 06:48:00,45.0,42.0,29.80,West,276,5.0,14.0,89,0.01,,---,0.01,VWS V14.01,2013-04-10 11:48:00,
2013-04-10 06:53:00,44.8,41.8,29.82,NW,312,8.0,16.0,89,0.01,,---,0.01,VWS V14.01,2013-04-10 11:53:00,
2013-04-10 06:59:00,44.7,41.7,29.82,NW,312,8.0,16.0,89,0.01,,---,0.01,VWS V14.01,2013-04-10 11:59:00,
2013-04-10 07:04:00,44.6,41.6,29.83,NNW,330,4.0,8.0,89,0.01,,---,0.01,VWS V14.01,2013-04-10 12:04:00,
2013-04-10 07:09:00,44.5,41.5,29.83,NNW,338,7.0,19.0,89,0.01,,---,0.01,VWS V14.01,2013-04-10 12:09:00,
2013-04-10 07:14:00,44.3,41.0,29.82,North,355,1.0,12.0,88,0.01,,---,0.01,VWS V14.01,2013-04-10 12:14:00,
2013-04-10 07:19:00,44.3,41.3,29.83,North,11,0.0,13.0,89,0.01,,---,0.01,VWS V14.01,2013-04-10 12:19:00,
2013-04-10 07:24:00,44.2,41.5,29.84,NNE,28,17.0,17.0,90,0.01,,---,0.01,VWS V14.01,2013-04-10 12:24:00,
2013-04-10 07:29:00,44.0,41.3,29.83,NNW,329,5.0,14.0,90,0.00,,---,0.01,VWS V14.01,2013-04-10 12:29:00,
2013-04-10 07:34:00,44.0,41.3,29.83,NNW,340,8.0,11.0,90,0.00,,---,0.01,VWS V14.01,2013-04-10 12:34:00,
2013-04-10 07:39:00,44.0,41.5,29.83,NW,321,1.0,7.0,91,0.00,,---,0.01,VWS V14.01,2013-04-10 12:39:00,
2013-04-10 07:44:00,44.1,41.7,29.84,NW,306,2.0,8.0,91,0.00,,---,0.01,VWS V14.01,2013-04-10 12:44:00,
2013-04-10 07:49:00,44.1,41.7,29.84,NNW,346,9.0,12.0,91,0.00,,---,0.01,VWS V14.01,2013-04-10 12:49:00,
2013-04-10 07:54:00,44.1,41.7,29.83,NNW,330,3.0,8.0,91,0.00,,---,0.01,VWS V14.01,2013-04-10 12:54:00,
2013-04-10 07:59:00,44.1,41.7,29.83,NW,309,5.0,8.0,91,0.01,,---,0.02,VWS V14.01,2013-04-10 12:59:00,
2013-04-10 08:04:00,44.1,41.7,29.83,NW,324,6.0,8.0,91,0.01,,---,0.02,VWS V14.01,2013-04-10 13:04:00,
2013-04-10 08:09:00,44.0,41.3,29.84,NNW,330,4.0,12.0,90,0.01,,---,0.02,VWS V14.01,2013-04-10 13:09:00,
2013-04-10 08:14:00,44.0,41.5,29.83,NNW,338,9.0,12.0,91,0.01,,---,0.02,VWS V14.01,2013-04-10 13:14:00,
2013-04-10 08:20:00,44.0,41.3,29.84,WNW,292,6.0,14.0,90,0.01,,---,0.02,VWS V14.01,2013-04-10 13:20:00,
2013-04-10 08:25:00,43.8,40.8,29.85,NW,325,10.0,11.0,89,0.01,,---,0.02,VWS V14.01,2013-04-10 13:25:00,
2013-04-10 08:30:00,43.6,40.6,29.85,NNW,340,5.0,16.0,89,0.01,,---,0.02,VWS V14.01,2013-04-10 13:30:00,
2013-04-10 08:35:00,43.6,40.6,29.86,NW,306,10.0,11.0,89,0.01,,---,0.02,VWS V14.01,2013-04-10 13:35:00,
2013-04-10 08:40:00,43.6,40.6,29.87,NW,317,11.0,12.0,89,0.01,,---,0.02,VWS V14.01,2013-04-10 13:40:00,
2013-04-10 08:45:00,43.4,40.1,29.87,NNE,13,8.0,14.0,88,0.01,,---,0.02,VWS V14.01,2013-04-10 13:45:00,
2013-04-10 08:50:00,43.2,39.9,29.87,NW,315,7.0,19.0,88,0.01,,---,0.02,VWS V14.01,2013-04-10 13:50:00,
2013-04-10 08:55:00,43.1,40.1,29.86,North,350,7.0,18.0,89,0.01,,---,0.02,VWS V14.01,2013-04-10 13:55:00,
2013-04-10 09:00:00,43.1,40.4,29.85,WNW,293,11.0,11.0,90,0.00,,---,0.02,VWS V14.01,2013-04-10 14:00:00,
2013-04-10 09:05:00,43.0,40.3,29.85,NNW,339,14.0,14.0,90,0.00,,---,0.02,VWS V14.01,2013-04-10 14:05:00,
2013-04-10 09:10:00,43.0,40.3,29.86,WNW,296,10.0,14.0,90,0.00,,---,0.02,VWS V14.01,2013-04-10 14:10:00,
2013-04-10 09:15:00,43.0,40.0,29.85,NW,308,6.0,16.0,89,0.00,,---,0.02,VWS V14.01,2013-04-10 14:15:00,
2013-04-10 09:21:00,43.0,40.3,29.86,NW,309,15.0,15.0,90,0.00,,---,0.02,VWS V14.01,2013-04-10 14:21:00,
2013-04-10 09:26:00,42.9,40.2,29.85,NW,306,5.0,15.0,90,0.00,,---,0.02,VWS V14.01,2013-04-10 14:26:00,
2013-04-10 09:31:00,42.8,40.1,29.86,WSW,246,2.0,13.0,90,0.00,,---,0.02,VWS V14.01,2013-04-10 14:31:00,
2013-04-10 09:36:00,42.8,40.1,29.86,NW,315,5.0,14.0,90,0.01,,---,0.03,VWS V14.01,2013-04-10 14:36:00,
2013-04-10 09:41:00,42.7,40.0,29.86,NNE,12,0.0,10.0,90,0.01,,---,0.03,VWS V14.01,2013-04-10 14:41:00,
2013-04-10 09:46:00,42.5,39.8,29.86,North,355,3.0,12.0,90,0.01,,---,0.03,VWS V14.01,2013-04-10 14:46:00,
2013-04-10 09:51:00,42.5,39.8,29.86,NW,316,6.0,12.0,90,0.01,,---,0.03,VWS V14.01,2013-04-10 14:51:00,
2013-04-10 09:56:00,42.5,39.8,29.86,NNW,331,2.0,9.0,90,0.01,,---,0.03,VWS V14.01,2013-04-10 14:56:00,
2013-04-10 10:01:00,42.3,39.6,29.86,NNE,21,4.0,9.0,90,0.01,,---,0.03,VWS V14.01,2013-04-10 15:01:00,
2013-04-10 10:06:00,42.2,39.5,29.86,WNW,301,1.0,14.0,90,0.01,,---,0.03,VWS V14.01,2013-04-10 15:06:00,
2013-04-10 10:12:00,42.1,39.4,29.86,NNW,327,3.0,12.0,90,0.01,,---,0.03,VWS V14.01,2013-04-10 15:12:00,
2013-04-10 10:17:00,42.1,39.4,29.86,NW,315,1.0,7.0,90,0.01,,---,0.03,VWS V14.01,2013-04-10 15:17:00,
2013-04-10 10:22:00,42.0,39.3,29.87,NNE,13,7.0,17.0,90,0.01,,---,0.03,VWS V14.01,2013-04-10 15:22:00,
2013-04-10 10:27:00,41.9,39.2,29.87,North,350,1.0,11.0,90,0.02,,---,0.04,VWS V14.01,2013-04-10 15:27:00,
2013-04-10 10:32:00,41.9,39.2,29.88,NW,311,3.0,11.0,90,0.02,,---,0.04,VWS V14.01,2013-04-10 15:32:00,
2013-04-10 10:37:00,41.9,39.5,29.89,NW,317,0.0,8.0,91,0.02,,---,0.04,VWS V14.01,2013-04-10 15:37:00,
2013-04-10 10:42:00,42.0,39.6,29.89,North,5,3.0,10.0,91,0.02,,---,0.04,VWS V14.01,2013-04-10 15:42:00,
2013-04-10 10:47:00,42.0,39.6,29.90,WNW,298,4.0,10.0,91,0.02,,---,0.04,VWS V14.01,2013-04-10 15:47:00,
2013-04-10 10:52:00,42.0,39.6,29.91,NW,318,5.0,9.0,91,0.02,,---,0.04,VWS V14.01,2013-04-10 15:52:00,
2013-04-10 10:57:00,42.0,39.6,29.91,NW,305,5.0,10.0,91,0.02,,---,0.04,VWS V14.01,2013-04-10 15:57:00,
2013-04-10 11:02:00,41.9,39.5,29.91,NW,313,2.0,13.0,91,0.01,,---,0.04,VWS V14.01,2013-04-10 16:02:00,
2013-04-10 11:07:00,41.9,39.8,29.91,NNW,343,5.0,12.0,92,0.02,,---,0.05,VWS V14.01,2013-04-10 16:07:00,
2013-04-10 11:12:00,41.9,39.8,29.91,NW,322,6.0,11.0,92,0.02,,---,0.05,VWS V14.01,2013-04-10 16:12:00,
2013-04-10 11:17:00,41.8,39.7,29.91,NW,306,11.0,16.0,92,0.02,,---,0.05,VWS V14.01,2013-04-10 16:17:00,
2013-04-10 11:23:00,41.8,39.7,29.91,WNW,299,5.0,12.0,92,0.02,,---,0.05,VWS V14.01,2013-04-10 16:23:00,
2013-04-10 11:28:00,41.7,39.5,29.91,SW,235,3.0,18.0,92,0.02,,---,0.05,VWS V14.01,2013-04-10 16:28:00,
2013-04-10 11:33:00,41.5,39.3,29.92,NW,305,11.0,17.0,92,0.01,,---,0.05,VWS V14.01,2013-04-10 16:33:00,
2013-04-10 11:38:00,41.4,39.2,29.90,NW,311,6.0,15.0,92,0.02,,---,0.06,VWS V14.01,2013-04-10 16:38:00,
2013-04-10 11:43:00,41.2,39.1,29.91,WNW,296,14.0,19.0,92,0.02,,---,0.06,VWS V14.01,2013-04-10 16:43:00,
2013-04-10 11:48:00,41.0,38.9,29.90,NW,321,4.0,13.0,92,0.02,,---,0.06,VWS V14.01,2013-04-10 16:48:00,
2013-04-10 11:53:00,40.8,38.4,29.90,NNW,341,15.0,15.0,91,0.02,,---,0.06,VWS V14.01,2013-04-10 16:53:00,
2013-04-10 11:58:00,40.6,38.2,29.91,West,269,6.0,13.0,91,0.02,,---,0.06,VWS V14.01,2013-04-10 16:58:00,
2013-04-10 12:03:00,40.6,38.5,29.90,NW,304,0.0,9.0,92,0.02,,---,0.06,VWS V14.01,2013-04-10 17:03:00,
2013-04-10 12:08:00,40.5,38.4,29.90,NW,319,9.0,20.0,92,0.02,,---,0.06,VWS V14.01,2013-04-10 17:08:00,
2013-04-10 12:13:00,40.4,38.3,29.88,West,264,5.0,16.0,92,0.02,,---,0.06,VWS V14.01,2013-04-10 17:13:00,
2013-04-10 12:18:00,40.5,38.4,29.92,NW,310,7.0,17.0,92,0.02,,---,0.06,VWS V14.01,2013-04-10 17:18:00,
2013-04-10 12:23:00,40.5,38.4,29.88,WNW,296,5.0,14.0,92,0.02,,---,0.06,VWS V14.01,2013-04-10 17:23:00,
2013-04-10 12:28:00,40.5,38.4,29.88,West,281,0.0,9.0,92,0.02,,---,0.06,VWS V14.01,2013-04-10 17:28:00,
2013-04-10 12:34:00,40.5,38.6,29.92,NW,315,5.0,15.0,93,0.02,,---,0.07,VWS V14.01,2013-04-10 17:34:00,
2013-04-10 12:39:00,40.4,38.5,29.93,West,281,6.0,13.0,93,0.02,,---,0.07,VWS V14.01,2013-04-10 17:39:00,
2013-04-10 12:44:00,40.4,38.5,29.92,WNW,286,8.0,11.0,93,0.02,,---,0.07,VWS V14.01,2013-04-10 17:44:00,
2013-04-10 12:49:00,40.4,38.5,29.91,NW,315,3.0,10.0,93,0.02,,---,0.07,VWS V14.01,2013-04-10 17:49:00,
2013-04-10 12:54:00,40.3,38.4,29.92,NW,313,4.0,9.0,93,0.02,,---,0.07,VWS V14.01,2013-04-10 17:54:00,
2013-04-10 12:59:00,40.4,38.5,29.88,NNW,342,0.0,11.0,93,0.01,,---,0.07,VWS V14.01,2013-04-10 17:59:00,
2013-04-10 13:04:00,40.6,38.7,29.88,NW,307,6.0,11.0,93,0.01,,---,0.07,VWS V14.01,2013-04-10 18:04:00,
2013-04-10 13:09:00,40.4,38.5,29.90,WNW,285,8.0,18.0,93,0.01,,---,0.07,VWS V14.01,2013-04-10 18:09:00,
2013-04-10 13:14:00,40.3,38.2,29.90,West,259,15.0,20.0,92,0.01,,---,0.07,VWS V14.01,2013-04-10 18:14:00,
2013-04-10 13:19:00,40.3,38.2,29.90,NW,324,2.0,13.0,92,0.01,,---,0.07,VWS V14.01,2013-04-10 18:19:00,
2013-04-10 13:24:00,40.4,38.3,29.89,NW,313,1.0,14.0,92,0.01,,---,0.07,VWS V14.01,2013-04-10 18:24:00,
2013-04-10 13:29:00,40.8,38.7,29.90,WNW,290,13.0,13.0,92,0.02,,---,0.08,VWS V14.01,2013-04-10 18:29:00,
2013-04-10 13:34:00,41.6,39.7,29.89,WNW,298,11.0,13.0,93,0.02,,---,0.08,VWS V14.01,2013-04-10 18:34:00,
2013-04-10 13:39:00,41.9,39.8,29.89,NNW,327,9.0,15.0,92,0.02,,---,0.08,VWS V14.01,2013-04-10 18:39:00,
2013-04-10 13:44:00,42.1,39.7,29.89,WNW,297,5.0,12.0,91,0.02,,---,0.08,VWS V14.01,2013-04-10 18:44:00,
2013-04-10 13:49:00,42.3,39.9,29.89,NW,319,0.0,12.0,91,0.02,,---,0.08,VWS V14.01,2013-04-10 18:49:00,
2013-04-10 13:54:00,42.3,39.6,29.90,NW,309,8.0,11.0,90,0.02,,---,0.08,VWS V14.01,2013-04-10 18:54:00,
2013-04-10 13:59:00,42.2,39.5,29.89,NW,304,3.0,15.0,90,0.01,,---,0.08,VWS V14.01,2013-04-10 18:59:00,
2013-04-10 14:05:00,42.1,39.1,29.89,WNW,303,16.0,16.0,89,0.01,,---,0.08,VWS V14.01,2013-04-10 19:05:00,
2013-04-10 14:10:00,42.0,39.0,29.87,NW,320,11.0,18.0,89,0.01,,---,0.08,VWS V14.01,2013-04-10 19:10:00,
2013-04-10 14:15:00,42.2,39.5,29.89,North,355,1.0,12.0,90,0.01,,---,0.08,VWS V14.01,2013-04-10 19:15:00,
2013-04-10 14:20:00,42.2,39.5,29.90,WNW,303,8.0,11.0,90,0.01,,---,0.08,VWS V14.01,2013-04-10 19:20:00,
2013-04-10 14:25:00,42.2,39.2,29.89,NW,311,10.0,16.0,89,0.01,,---,0.08,VWS V14.01,2013-04-10 19:25:00,
2013-04-10 14:30:00,42.3,39.6,29.88,NW,313,7.0,12.0,90,0.00,,---,0.08,VWS V14.01,2013-04-10 19:30:00,
2013-04-10 14:35:00,42.5,39.5,29.89,WNW,300,4.0,8.0,89,0.00,,---,0.08,VWS V14.01,2013-04-10 19:35:00,
2013-04-10 14:40:00,42.5,39.2,29.90,WNW,286,4.0,16.0,88,0.00,,---,0.08,VWS V14.01,2013-04-10 19:40:00,
2013-04-10 14:45:00,42.4,39.1,29.88,NW,305,13.0,13.0,88,0.00,,---,0.08,VWS V14.01,2013-04-10 19:45:00,
2013-04-10 14:50:00,42.3,38.7,29.88,NW,311,8.0,18.0,87,0.00,,---,0.08,VWS V14.01,2013-04-10 19:50:00,
2013-04-10 14:55:00,42.3,38.7,29.89,NW,306,7.0,15.0,87,0.00,,---,0.08,VWS V14.01,2013-04-10 19:55:00,
2013-04-10 15:00:00,42.3,38.7,29.88,NNW,333,8.0,16.0,87,0.00,,---,0.08,VWS V14.01,2013-04-10 20:00:00,
2013-04-10 15:05:00,42.3,38.7,29.88,NW,317,15.0,15.0,87,0.00,,---,0.08,VWS V14.01,2013-04-10 20:05:00,
2013-04-10 15:10:00,42.4,38.8,29.88,WSW,237,9.0,14.0,87,0.01,,---,0.09,VWS V14.01,2013-04-10 20:10:00,
2013-04-10 15:16:00,42.3,38.4,29.88,NW,319,11.0,14.0,86,0.01,,---,0.09,VWS V14.01,2013-04-10 20:16:00,
2013-04-10 15:21:00,42.3,38.7,29.87,NNW,335,9.0,11.0,87,0.01,,---,0.09,VWS V14.01,2013-04-10 20:21:00,
2013-04-10 15:26:00,42.5,38.9,29.87,WNW,298,10.0,12.0,87,0.01,,---,0.09,VWS V14.01,2013-04-10 20:26:00,
2013-04-10 15:32:00,42.7,39.1,29.87,NNW,336,11.0,17.0,87,0.01,,---,0.09,VWS V14.01,2013-04-10 20:32:00,
2013-04-10 15:37:00,42.6,38.4,29.88,NW,318,14.0,15.0,85,0.01,,---,0.09,VWS V14.01,2013-04-10 20:37:00,
2013-04-10 15:42:00,42.6,38.7,29.88,NW,310,7.0,16.0,86,0.01,,---,0.09,VWS V14.01,2013-04-10 20:42:00,
2013-04-10 15:47:00,42.8,38.9,29.88,NW,325,7.0,14.0,86,0.01,,---,0.09,VWS V14.01,2013-04-10 20:47:00,
2013-04-10 15:52:00,42.6,38.4,29.88,NNW,331,4.0,18.0,85,0.04,,---,0.12,VWS V14.01,2013-04-10 20:52:00,
2013-04-10 15:57:00,42.4,38.2,29.89,WNW,302,5.0,14.0,85,0.16,,---,0.24,VWS V14.01,2013-04-10 20:57:00,
2013-04-10 16:02:00,42.4,38.5,29.90,NW,320,4.0,14.0,86,0.16,,---,0.24,VWS V14.01,2013-04-10 21:02:00,
2013-04-10 16:07:00,42.4,38.5,29.89,NW,326,0.0,8.0,86,0.16,,---,0.24,VWS V14.01,2013-04-10 21:07:00,
2013-04-10 16:12:00,42.5,38.6,29.90,NW,311,7.0,11.0,86,0.16,,---,0.24,VWS V14.01,2013-04-10 21:12:00,
2013-04-10 16:17:00,42.7,38.8,29.89,NNW,341,7.0,12.0,86,0.16,,---,0.24,VWS V14.01,2013-04-10 21:17:00,
2013-04-10 16:22:00,42.7,38.8,29.89,NNW,327,5.0,16.0,86,0.16,,---,0.24,VWS V14.01,2013-04-10 21:22:00,
2013-04-10 16:27:00,42.8,38.9,29.89,NNW,327,8.0,12.0,86,0.16,,---,0.24,VWS V14.01,2013-04-10 21:27:00,
2013-04-10 16:32:00,42.5,38.3,29.89,West,275,13.0,19.0,85,0.15,,---,0.24,VWS V14.01,2013-04-10 21:32:00,
2013-04-10 16:37:00,42.2,38.0,29.89,NW,308,12.0,16.0,85,0.15,,---,0.24,VWS V14.01,2013-04-10 21:37:00,
2013-04-10 16:42:00,42.1,38.2,29.89,NNW,345,4.0,7.0,86,0.15,,---,0.24,VWS V14.01,2013-04-10 21:42:00,
2013-04-10 16:47:00,42.1,37.9,29.89,NW,317,5.0,10.0,85,0.15,,---,0.24,VWS V14.01,2013-04-10 21:47:00,
2013-04-10 16:53:00,42.3,38.4,29.89,WNW,302,2.0,8.0,86,0.15,,---,0.24,VWS V14.01,2013-04-10 21:53:00,
2013-04-10 16:58:00,42.5,38.0,29.89,NW,308,11.0,14.0,84,0.15,,---,0.24,VWS V14.01,2013-04-10 21:58:00,
2013-04-10 17:03:00,42.6,38.1,29.89,West,279,4.0,12.0,84,0.00,,---,0.24,VWS V14.01,2013-04-10 22:03:00,
2013-04-10 17:08:00,42.7,37.9,29.89,WNW,289,5.0,17.0,83,0.00,,---,0.24,VWS V14.01,2013-04-10 22:08:00,
2013-04-10 17:13:00,42.7,37.9,29.89,NNW,331,0.0,12.0,83,0.00,,---,0.24,VWS V14.01,2013-04-10 22:13:00,
2013-04-10 17:18:00,42.7,37.9,29.90,NW,311,13.0,16.0,83,0.00,,---,0.24,VWS V14.01,2013-04-10 22:18:00,
2013-04-10 17:23:00,42.8,37.7,29.90,NNW,343,10.0,18.0,82,0.00,,---,0.24,VWS V14.01,2013-04-10 22:23:00,
2013-04-10 17:28:00,42.9,38.1,29.89,WNW,297,12.0,12.0,83,0.00,,---,0.24,VWS V14.01,2013-04-10 22:28:00,
2013-04-10 17:33:00,43.1,38.0,29.89,West,266,6.0,20.0,82,0.00,,---,0.24,VWS V14.01,2013-04-10 22:33:00,
2013-04-10 17:38:00,43.2,37.8,29.89,North,360,8.0,15.0,81,0.00,,---,0.24,VWS V14.01,2013-04-10 22:38:00,
2013-04-10 17:43:00,43.2,38.1,29.89,NNW,340,8.0,13.0,82,0.00,,---,0.24,VWS V14.01,2013-04-10 22:43:00,
2013-04-10 17:49:00,43.3,38.2,29.89,WNW,294,8.0,12.0,82,0.00,,---,0.24,VWS V14.01,2013-04-10 22:49:00,
2013-04-10 17:54:00,43.4,38.3,29.89,NW,323,10.0,13.0,82,0.00,,---,0.24,VWS V14.01,2013-04-10 22:54:00,
2013-04-10 17:59:00,43.5,38.4,29.89,NW,307,8.0,14.0,82,0.00,,---,0.24,VWS V14.01,2013-04-10 22:59:00,
2013-04-10 18:04:00,43.6,38.5,29.89,WNW,302,4.0,8.0,82,0.00,,---,0.24,VWS V14.01,2013-04-10 23:04:00,
2013-04-10 18:09:00,43.7,38.3,29.89,WNW,298,5.0,13.0,81,0.00,,---,0.24,VWS V14.01,2013-04-10 23:09:00,
2013-04-10 18:14:00,43.7,38.3,29.89,NW,316,4.0,10.0,81,0.00,,---,0.24,VWS V14.01,2013-04-10 23:14:00,
2013-04-10 18:19:00,43.8,38.4,29.89,NW,305,4.0,10.0,81,0.00,,---,0.24,VWS V14.01,2013-04-10 23:19:00,
2013-04-10 18:24:00,43.9,38.5,29.90,WNW,286,4.0,14.0,81,0.00,,---,0.24,VWS V14.01,2013-04-10 23:24:00,
2013-04-10 18:29:00,44.1,38.3,29.90,NW,323,5.0,16.0,80,0.00,,---,0.24,VWS V14.01,2013-04-10 23:29:00,
2013-04-10 18:34:00,44.3,38.5,29.90,NW,310,8.0,13.0,80,0.00,,---,0.24,VWS V14.01,2013-04-10 23:34:00,
2013-04-10 18:39:00,44.4,38.6,29.90,WNW,296,7.0,10.0,80,0.00,,---,0.24,VWS V14.01,2013-04-10 23:39:00,
2013-04-10 18:44:00,44.5,38.7,29.90,NNW,333,5.0,9.0,80,0.00,,---,0.24,VWS V14.01,2013-04-10 23:44:00,
2013-04-10 18:49:00,44.8,39.0,29.90,WNW,290,4.0,11.0,80,0.00,,---,0.24,VWS V14.01,2013-04-10 23:49:00,
2013-04-10 18:54:00,44.9,39.1,29.90,WNW,303,4.0,9.0,80,0.00,,---,0.24,VWS V14.01,2013-04-10 23:54:00,
2013-04-10 18:59:00,44.9,38.8,29.91,NNW,327,9.0,12.0,79,0.00,,---,0.24,VWS V14.01,2013-04-10 23:59:00,
2013-04-10 19:04:00,44.8,39.0,29.91,North,349,0.0,5.0,80,0.00,,---,0.24,VWS V14.01,2013-04-11 00:04:00,
2013-04-10 19:09:00,44.8,39.0,29.91,NNW,331,2.0,8.0,80,0.00,,---,0.24,VWS V14.01,2013-04-11 00:09:00,
2013-04-10 19:14:00,44.8,39.0,29.91,NW,325,0.0,10.0,80,0.00,,---,0.24,VWS V14.01,2013-04-11 00:14:00,
2013-04-10 19:19:00,44.8,39.0,29.91,NW,317,0.0,8.0,80,0.00,,---,0.24,VWS V14.01,2013-04-11 00:19:00,
2013-04-10 19:24:00,44.7,38.9,29.91,NNW,333,0.0,4.0,80,0.00,,---,0.24,VWS V14.01,2013-04-11 00:24:00,
2013-04-10 19:29:00,44.7,38.9,29.91,NW,312,9.0,10.0,80,0.00,,---,0.24,VWS V14.01,2013-04-11 00:29:00,
2013-04-10 19:34:00,44.6,38.8,29.92,NW,311,5.0,5.0,80,0.00,,---,0.24,VWS V14.01,2013-04-11 00:34:00,
2013-04-10 19:40:00,44.6,38.8,29.92,NNW,338,3.0,7.0,80,0.00,,---,0.24,VWS V14.01,2013-04-11 00:40:00,
2013-04-10 19:45:00,44.5,39.0,29.92,NW,315,0.0,5.0,81,0.00,,---,0.24,VWS V14.01,2013-04-11 00:45:00,
2013-04-10 19:50:00,44.4,38.9,29.92,NNW,336,4.0,7.0,81,0.00,,---,0.24,VWS V14.01,2013-04-11 00:50:00,
2013-04-10 19:55:00,44.3,38.8,29.92,WNW,283,6.0,7.0,81,0.00,,---,0.24,VWS V14.01,2013-04-11 00:55:00,
2013-04-10 20:00:00,44.2,38.8,29.92,NW,315,4.0,7.0,81,0.00,,---,0.24,VWS V14.01,2013-04-11 01:00:00,
2013-04-10 20:05:00,44.1,38.7,29.92,NW,320,2.0,8.0,81,0.00,,---,0.24,VWS V14.01,2013-04-11 01:05:00,
2013-04-10 20:10:00,44.0,38.9,29.92,NNW,341,0.0,3.0,82,0.00,,---,0.24,VWS V14.01,2013-04-11 01:10:00,
2013-04-10 20:15:00,43.9,38.8,29.91,NNW,330,0.0,3.0,82,0.00,,---,0.24,VWS V14.01,2013-04-11 01:15:00,
2013-04-10 20:20:00,43.7,38.6,29.91,NW,325,3.0,5.0,82,0.00,,---,0.24,VWS V14.01,2013-04-11 01:20:00,
2013-04-10 20:25:00,43.6,38.8,29.91,NNE,13,0.0,1.0,83,0.00,,---,0.24,VWS V14.01,2013-04-11 01:25:00,
2013-04-10 20:30:00,43.5,38.7,29.91,NW,317,0.0,7.0,83,0.00,,---,0.24,VWS V14.01,2013-04-11 01:30:00,
2013-04-10 20:35:00,43.5,38.7,29.92,NNW,327,0.0,2.0,83,0.00,,---,0.24,VWS V14.01,2013-04-11 01:35:00,
2013-04-10 20:40:00,43.4,38.6,29.92,NW,318,0.0,2.0,83,0.00,,---,0.24,VWS V14.01,2013-04-11 01:40:00,
2013-04-10 20:45:00,43.4,38.9,29.92,NNW,342,0.0,4.0,84,0.00,,---,0.24,VWS V14.01,2013-04-11 01:45:00,
2013-04-10 20:50:00,43.3,38.5,29.92,NW,320,0.0,4.0,83,0.00,,---,0.24,VWS V14.01,2013-04-11 01:50:00,
2013-04-10 20:55:00,43.3,38.8,29.92,WNW,301,0.0,3.0,84,0.00,,---,0.24,VWS V14.01,2013-04-11 01:55:00,
2013-04-10 21:01:00,43.2,38.7,29.92,NNW,329,2.0,2.0,84,0.00,,---,0.24,VWS V14.01,2013-04-11 02:01:00,
2013-04-10 21:06:00,43.1,38.6,29.92,NW,321,2.0,3.0,84,0.00,,---,0.24,VWS V14.01,2013-04-11 02:06:00,
2013-04-10 21:11:00,43.1,38.6,29.93,NW,319,0.0,0.0,84,0.00,,---,0.24,VWS V14.01,2013-04-11 02:11:00,
2013-04-10 21:16:00,42.9,38.7,29.93,NW,319,0.0,0.0,85,0.00,,---,0.24,VWS V14.01,2013-04-11 02:16:00,
2013-04-10 21:21:00,42.8,38.6,29.94,NW,319,0.0,0.0,85,0.00,,---,0.24,VWS V14.01,2013-04-11 02:21:00,
2013-04-10 21:27:00,42.7,38.5,29.94,NW,319,0.0,0.0,85,0.00,,---,0.24,VWS V14.01,2013-04-11 02:27:00,
2013-04-10 21:32:00,42.6,38.7,29.94,NW,317,0.0,0.0,86,0.00,,---,0.24,VWS V14.01,2013-04-11 02:32:00,
2013-04-10 21:37:00,42.5,38.6,29.94,WNW,303,2.0,3.0,86,0.00,,---,0.24,VWS V14.01,2013-04-11 02:37:00,
2013-04-10 21:42:00,42.5,38.9,29.95,NW,306,0.0,0.0,87,0.00,,---,0.24,VWS V14.01,2013-04-11 02:42:00,
2013-04-10 21:47:00,42.5,38.9,29.94,NW,306,0.0,0.0,87,0.00,,---,0.24,VWS V14.01,2013-04-11 02:47:00,
2013-04-10 21:52:00,42.5,38.9,29.95,NW,315,1.0,8.0,87,0.00,,---,0.24,VWS V14.01,2013-04-11 02:52:00,
2013-04-10 21:57:00,42.6,39.0,29.95,NNW,333,5.0,6.0,87,0.00,,---,0.24,VWS V14.01,2013-04-11 02:57:00,
2013-04-10 22:02:00,42.9,39.0,29.95,NW,315,4.0,8.0,86,0.00,,---,0.24,VWS V14.01,2013-04-11 03:02:00,
2013-04-10 22:07:00,43.1,38.6,29.95,NW,310,8.0,8.0,84,0.00,,---,0.24,VWS V14.01,2013-04-11 03:07:00,
2013-04-10 22:12:00,43.3,38.5,29.95,NW,314,7.0,9.0,83,0.00,,---,0.24,VWS V14.01,2013-04-11 03:12:00,
2013-04-10 22:17:00,43.4,38.6,29.95,WNW,294,1.0,7.0,83,0.00,,---,0.24,VWS V14.01,2013-04-11 03:17:00,
2013-04-10 22:22:00,43.5,38.4,29.95,NNW,334,1.0,6.0,82,0.00,,---,0.24,VWS V14.01,2013-04-11 03:22:00,
2013-04-10 22:27:00,43.6,38.5,29.95,NW,306,0.0,8.0,82,0.00,,---,0.24,VWS V14.01,2013-04-11 03:27:00,
2013-04-10 22:32:00,43.7,38.3,29.95,NNW,336,5.0,9.0,81,0.00,,---,0.24,VWS V14.01,2013-04-11 03:32:00,
2013-04-10 22:37:00,43.9,38.5,29.95,NNW,327,7.0,9.0,81,0.00,,---,0.24,VWS V14.01,2013-04-11 03:37:00,
2013-04-10 22:43:00,44.1,38.3,29.95,WNW,294,6.0,12.0,80,0.00,,---,0.24,VWS V14.01,2013-04-11 03:43:00,
2013-04-10 22:48:00,44.3,38.2,29.95,WNW,303,2.0,9.0,79,0.00,,---,0.24,VWS V14.01,2013-04-11 03:48:00,
2013-04-10 22:53:00,44.5,38.4,29.95,NW,321,6.0,7.0,79,0.00,,---,0.24,VWS V14.01,2013-04-11 03:53:00,
2013-04-10 22:58:00,44.6,38.5,29.95,NNW,342,3.0,11.0,79,0.00,,---,0.24,VWS V14.01,2013-04-11 03:58:00,
2013-04-10 23:00:00,44.6,38.5,29.95,WNW,303,6.0,9.0,79,0.00,,---,0.24,VWS V14.01,2013-04-11 04:00:00,
2013-04-10 23:06:00,44.7,38.6,29.95,NNW,332,7.0,10.0,79,0.00,,---,0.24,VWS V14.01,2013-04-11 04:06:00,
2013-04-10 23:11:00,44.5,38.4,29.95,NW,316,10.0,10.0,79,0.00,,---,0.24,VWS V14.01,2013-04-11 04:11:00,
2013-04-10 23:16:00,44.0,37.6,29.96,NNW,334,7.0,12.0,78,0.00,,---,0.24,VWS V14.01,2013-04-11 04:16:00,
2013-04-10 23:21:00,43.6,37.2,29.96,NNE,14,2.0,11.0,78,0.00,,---,0.24,VWS V14.01,2013-04-11 04:21:00,
2013-04-10 23:26:00,43.3,37.2,29.96,North,355,9.0,13.0,79,0.00,,---,0.24,VWS V14.01,2013-04-11 04:26:00,
2013-04-10 23:31:00,43.0,36.9,29.97,North,5,2.0,6.0,79,0.00,,---,0.24,VWS V14.01,2013-04-11 04:31:00,
2013-04-10 23:36:00,42.6,36.5,29.97,NNW,345,2.0,10.0,79,0.00,,---,0.24,VWS V14.01,2013-04-11 04:36:00,
2013-04-10 23:41:00,42.4,36.0,29.97,WNW,292,8.0,8.0,78,0.00,,---,0.24,VWS V14.01,2013-04-11 04:41:00,
2013-04-10 23:46:00,42.2,35.8,29.97,NW,314,4.0,10.0,78,0.00,,---,0.24,VWS V14.01,2013-04-11 04:46:00,
2013-04-10 23:51:00,42.0,36.0,29.97,NNW,327,6.0,13.0,79,0.00,,---,0.24,VWS V14.01,2013-04-11 04:51:00,
2013-04-10 23:57:00,41.9,35.5,29.98,NNW,328,4.0,11.0,78,0.00,,---,0.24,VWS V14.01,2013-04-11 04:57:00,